Isle Royale National Park, MI

11:07 AM EST op 31 januari 2015 (GMT -0500)
Hancock: Sylvan Estates | Change Station
CLOSE
Current Station
Persoonlijk weerstation
Location: Hancock, MI
Geometrische hoogte: 917 ft
Nabije weerstations

Hoogte 917 ft 47.14 °N, 88.60 °W | Updated 7 minutes ago

Geheel bewolkt
Geheel bewolkt
20.6 °F
Voelt als 9 °F
N
11.0
Wind Variabel Wind van NNO
Gusts 17.0 mijl/u

Vandaag
Hoog -- | Laag -- °F
--% Kans op neerslag
Gisteren
Hoog -- | Laag -- °F
Precip. -- inches
8:20 AM 5:54 PM
Wassende maan, 90% visible
Druk 30.20 inches
Zicht 1.8 mijlen
Wolken Merendeels bewolkt 1900 ft
Merendeels bewolkt 2800 ft
Geheel bewolkt 4300 ft
Gevoelstemperatuur 9 °F
Dauwpunt 16 °F
Vochtigheid 81%
Neerslag 0.00 inches
Dikte sneeuw Niet beschikbaar.
UV 0 van de 12
Pollen .10 van de 12
Luchtkwaliteit Niet beschikbaar.
Flu Activity Niet beschikbaar.
METAR KCMX 311553Z AUTO 33012KT 1 3/4SM -SN BKN019 BKN028 OVC043 M08/M12 A3013 RMK AO2 SLP227 P0000 T10781117

More Conditions Fewer Conditions

Druk 30.20 inches
Zicht 1.8 mijlen
Wolken Merendeels bewolkt 1900 ft
Merendeels bewolkt 2800 ft
Geheel bewolkt 4300 ft
Gevoelstemperatuur 9 °F
Dauwpunt 16 °F
Vochtigheid 81%
Neerslag 0.00 inches
Dikte sneeuw Niet beschikbaar.
UV 0 van de 12
Pollen .10 van de 12
Luchtkwaliteit Niet beschikbaar.
Flu Activity Niet beschikbaar.
METAR KCMX 311553Z AUTO 33012KT 1 3/4SM -SN BKN019 BKN028 OVC043 M08/M12 A3013 RMK AO2 SLP227 P0000 T10781117

More Conditions Fewer Conditions

10-Day Weather Forecast

Almanac

Astronomie

Jan. 31, 2015 Opkomst Ondergang
Werkelijke tijd
Burgerlijke schemering
Nautische schemering
Astronomische schemering
Maan
Golflengte van het zichtbare licht
Daglengte
Tomorrow will be .
, % of the Moon is Illuminated

Extremen vandaag

State Highs State Lows

Community

WunderPhotos

Upload Photos

1,792,098 foto’s ge-upload!

WunderBlogs® & News

Nearby

Luchtkwaliteit

  Luchtkwaliteit LK-index Verontreinigende stof
Not available.

Dikte sneeuw

Station Depth Geometrische hoogte

Aardbevingen

Stad Distance Mag. Time & Date
Minimum magnitude displayed is 2.5.

Watertemperatuur langs de kust

Plaats Temperatuur

Nabije weerstations